Time;durP1;ratioP1;P1;durP2;ratioP2;P2;SDS_P1;SDS_P2;PMS_P1;PMS_P2;Temp;Humidity;BMP_temperature;BMP_pressure;BME280_temperature;BME280_humidity;BME280_pressure;Samples;Min_cycle;Max_cycle;Signal;HPM_P1;HPM_P2
2022/07/03 00:02:10;;;;;;;;;;;;;;;29.81;32.40;99481.66;4401526;32;34934;-82
2022/07/03 00:04:38;;;;;;;;;;;;;;;29.77;32.44;99485.47;4406084;32;35519;-90
2022/07/03 00:07:06;;;;;;;;;;;;;;;29.72;32.49;99487.59;4405735;32;34262;-87
2022/07/03 00:09:33;;;;;;;;;;;;;;;29.78;32.39;99476.53;4405345;32;33934;-83
2022/07/03 00:12:00;;;;;;;;;;;;;;;29.38;33.01;99484.25;4379102;32;34193;-91
2022/07/03 00:14:27;;;;;;;;;;;;;;;29.48;32.82;99489.91;4390269;32;34320;-83
2022/07/03 00:16:54;;;;;;;;;;;;;;;29.33;33.13;99492.53;4400469;32;34392;-85
2022/07/03 00:19:22;;;;;;;;;;;;;;;28.17;35.28;99487.56;4400304;32;35227;-83
2022/07/03 00:21:53;;;;;;;;;;;;;;;29.07;33.74;99490.53;4389629;32;34553;-89
2022/07/03 00:24:25;;;;;;;;;;;;;;;29.28;33.55;99493.75;4387848;32;34947;-92
2022/07/03 00:26:53;;;;;;;;;;;;;;;29.44;33.42;99480.38;4389280;32;33689;-92
2022/07/03 00:29:21;;;;;;;;;;;;;;;29.51;33.13;99482.56;4402188;32;34453;-92
2022/07/03 00:31:48;;;;;;;;;;;;;;;29.47;33.19;99480.16;4404373;32;34459;-83
2022/07/03 00:34:18;;;;;;;;;;;;;;;29.62;32.91;99475.72;4405486;32;34461;-83
2022/07/03 00:36:46;;;;;;;;;;;;;;;29.33;33.38;99475.66;4392087;32;34442;-92
2022/07/03 00:39:13;;;;;;;;;;;;;;;29.38;33.24;99473.56;4380807;32;33994;-83
2022/07/03 00:41:41;;;;;;;;;;;;;;;29.01;33.82;99481.06;4393070;32;34588;-82
2022/07/03 00:44:08;;;;;;;;;;;;;;;29.03;33.87;99487.19;4391001;32;35022;-86
2022/07/03 00:46:37;;;;;;;;;;;;;;;29.21;33.52;99487.03;4378662;32;33025;-83
2022/07/03 00:49:06;;;;;;;;;;;;;;;29.20;33.52;99485.34;4394350;32;35006;-88
2022/07/03 00:51:33;;;;;;;;;;;;;;;29.17;33.52;99485.50;4407450;32;34182;-84
2022/07/03 00:54:00;;;;;;;;;;;;;;;29.14;33.61;99477.69;4394584;32;34540;-84
2022/07/03 00:56:28;;;;;;;;;;;;;;;29.02;33.85;99479.28;4384419;32;32428;-83
2022/07/03 00:58:57;;;;;;;;;;;;;;;29.23;33.58;99474.47;4393489;32;34109;-84
2022/07/03 01:01:25;;;;;;;;;;;;;;;29.12;33.68;99472.44;4394958;32;34484;-89
2022/07/03 01:04:11;;;;;;;;;;;;;;;29.04;33.86;99464.00;4382573;32;33232;-83
2022/07/03 01:06:40;;;;;;;;;;;;;;;29.03;33.79;99468.50;4392415;32;33795;-82
2022/07/03 01:09:08;;;;;;;;;;;;;;;29.05;33.79;99465.72;4404963;32;35010;-84
2022/07/03 01:11:39;;;;;;;;;;;;;;;28.95;34.09;99467.19;4406648;32;34407;-86
2022/07/03 01:14:19;;;;;;;;;;;;;;;29.00;33.90;99468.66;4387654;32;34468;-84
2022/07/03 01:16:53;;;;;;;;;;;;;;;29.05;33.74;99465.72;4391444;32;33529;-89
2022/07/03 01:19:32;;;;;;;;;;;;;;;28.79;34.28;99468.09;4406300;32;33983;-96
2022/07/03 01:22:03;;;;;;;;;;;;;;;28.60;34.68;99462.06;4393447;32;34438;-83
2022/07/03 01:24:39;;;;;;;;;;;;;;;28.63;34.72;99469.88;4406358;32;34758;-83
2022/07/03 01:27:08;;;;;;;;;;;;;;;28.39;35.15;99469.47;4392219;32;34467;-89
2022/07/03 01:29:37;;;;;;;;;;;;;;;28.41;35.24;99456.91;4391384;32;32641;-85
2022/07/03 01:32:05;;;;;;;;;;;;;;;28.62;34.79;99460.19;4394229;32;34459;-87
2022/07/03 01:34:34;;;;;;;;;;;;;;;28.51;35.00;99459.91;4410432;32;33895;-85
2022/07/03 01:37:01;;;;;;;;;;;;;;;28.81;34.46;99462.66;4412140;32;33424;-84
2022/07/03 01:39:28;;;;;;;;;;;;;;;28.86;34.29;99455.22;4394291;32;34087;-94
2022/07/03 01:42:15;;;;;;;;;;;;;;;28.61;34.75;99459.31;4383991;32;32654;-83
2022/07/03 01:44:42;;;;;;;;;;;;;;;28.44;35.36;99450.53;4395282;32;35062;-85
2022/07/03 01:47:10;;;;;;;;;;;;;;;28.51;35.45;99449.25;4383558;32;33204;-84
2022/07/03 01:49:38;;;;;;;;;;;;;;;28.47;35.57;99443.22;4390943;32;33879;-85
2022/07/03 01:52:05;;;;;;;;;;;;;;;28.41;35.82;99454.22;4390878;32;35298;-85
2022/07/03 01:54:52;;;;;;;;;;;;;;;28.64;35.44;99458.28;4381827;32;32827;-83
2022/07/03 01:57:20;;;;;;;;;;;;;;;28.56;35.56;99453.41;4415548;32;33602;-84
2022/07/03 01:59:49;;;;;;;;;;;;;;;28.36;36.06;99445.59;4392997;32;34815;-91
2022/07/03 02:02:22;;;;;;;;;;;;;;;28.48;36.02;99444.09;4407039;32;35370;-94
2022/07/03 02:04:54;;;;;;;;;;;;;;;28.29;36.49;99449.56;4393065;32;33060;-86
2022/07/03 02:07:40;;;;;;;;;;;;;;;28.34;36.50;99452.84;4393110;32;33021;-83
2022/07/03 02:10:08;;;;;;;;;;;;;;;28.42;36.68;99450.66;4404211;32;35094;-92
2022/07/03 02:12:37;;;;;;;;;;;;;;;28.32;37.10;99454.72;4397869;32;34083;-94
2022/07/03 02:15:05;;;;;;;;;;;;;;;28.36;37.14;99450.94;4400912;32;34410;-96
2022/07/03 02:17:37;;;;;;;;;;;;;;;28.48;37.04;99455.59;4393469;32;33233;-83
2022/07/03 02:20:11;;;;;;;;;;;;;;;28.45;37.30;99460.25;4393756;32;34888;-96
2022/07/03 02:22:43;;;;;;;;;;;;;;;28.26;38.00;99461.28;4393678;32;33668;-95
2022/07/03 02:25:16;;;;;;;;;;;;;;;28.39;37.67;99456.12;4407291;32;34277;-95
2022/07/03 02:27:44;;;;;;;;;;;;;;;28.53;37.37;99452.72;4392099;32;34388;-84
2022/07/03 02:30:12;;;;;;;;;;;;;;;28.60;37.18;99446.06;4406894;32;34430;-87
2022/07/03 02:32:43;;;;;;;;;;;;;;;28.58;37.35;99448.81;4405575;32;35217;-83
2022/07/03 02:35:11;;;;;;;;;;;;;;;28.66;37.23;99452.84;4393538;32;33909;-95
2022/07/03 02:37:47;;;;;;;;;;;;;;;28.56;37.52;99452.50;4406179;32;34569;-81
2022/07/03 02:40:17;;;;;;;;;;;;;;;28.69;37.22;99456.22;4405638;32;34356;-96
2022/07/03 02:42:55;;;;;;;;;;;;;;;28.76;37.07;99457.59;4392174;32;35218;-82
2022/07/03 02:45:22;;;;;;;;;;;;;;;28.72;37.02;99460.53;4406566;32;35343;-84
2022/07/03 02:48:02;;;;;;;;;;;;;;;28.74;37.05;99455.94;4393134;32;33277;-91
2022/07/03 02:50:30;;;;;;;;;;;;;;;28.77;37.01;99461.13;4392927;32;32728;-85
2022/07/03 02:53:05;;;;;;;;;;;;;;;28.78;36.90;99465.50;4393228;32;34196;-83
2022/07/03 02:55:45;;;;;;;;;;;;;;;28.85;36.70;99461.53;4392732;32;34096;-92
2022/07/03 02:58:22;;;;;;;;;;;;;;;28.79;36.72;99456.53;4392477;32;34221;-83
2022/07/03 03:00:55;;;;;;;;;;;;;;;28.86;36.57;99460.56;4398492;32;35157;-82
2022/07/03 03:03:23;;;;;;;;;;;;;;;28.84;36.51;99460.66;4406368;32;34414;-85
2022/07/03 03:05:54;;;;;;;;;;;;;;;28.78;36.79;99452.16;4392717;32;34003;-82
2022/07/03 03:08:21;;;;;;;;;;;;;;;28.78;36.96;99455.69;4379306;32;33730;-84
2022/07/03 03:10:48;;;;;;;;;;;;;;;28.66;37.03;99453.72;4392164;32;35166;-84
2022/07/03 03:13:18;;;;;;;;;;;;;;;28.58;37.26;99470.16;4386812;32;34777;-91
2022/07/03 03:15:55;;;;;;;;;;;;;;;28.43;37.60;99468.34;4391846;32;34275;-83
2022/07/03 03:18:22;;;;;;;;;;;;;;;28.55;37.32;99465.00;4405009;32;34898;-83
2022/07/03 03:20:50;;;;;;;;;;;;;;;28.61;37.13;99461.13;4392589;32;33716;-84
2022/07/03 03:23:19;;;;;;;;;;;;;;;28.35;37.71;99460.75;4394586;32;33755;-92
2022/07/03 03:25:47;;;;;;;;;;;;;;;28.67;36.94;99457.25;4393468;32;34378;-86
2022/07/03 03:28:14;;;;;;;;;;;;;;;28.56;37.26;99452.50;4406079;32;33388;-96
2022/07/03 03:30:41;;;;;;;;;;;;;;;28.40;37.61;99451.66;4392696;32;34742;-84
2022/07/03 03:33:09;;;;;;;;;;;;;;;28.55;37.23;99453.47;4392210;32;33956;-84
2022/07/03 03:35:37;;;;;;;;;;;;;;;28.78;36.81;99446.81;4392892;32;34150;-84
2022/07/03 03:38:04;;;;;;;;;;;;;;;28.68;36.88;99445.63;4397288;32;34149;-83
2022/07/03 03:40:32;;;;;;;;;;;;;;;28.72;36.92;99445.37;4405899;32;34273;-87
2022/07/03 03:43:01;;;;;;;;;;;;;;;28.72;37.02;99449.84;4391195;32;34453;-81
2022/07/03 03:45:29;;;;;;;;;;;;;;;28.76;37.04;99443.38;4392449;32;34336;-93
2022/07/03 03:47:56;;;;;;;;;;;;;;;28.51;37.72;99442.09;4392552;32;33365;-83
2022/07/03 03:50:24;;;;;;;;;;;;;;;28.77;37.50;99439.75;4392081;32;33919;-94
2022/07/03 03:52:51;;;;;;;;;;;;;;;29.13;36.92;99435.91;4392731;32;35090;-96
2022/07/03 03:55:18;;;;;;;;;;;;;;;29.44;36.22;99434.97;4394554;32;35345;-83
2022/07/03 03:57:46;;;;;;;;;;;;;;;29.77;35.87;99443.56;4421021;32;34365;-89
2022/07/03 04:00:13;;;;;;;;;;;;;;;30.03;35.51;99455.31;4407620;32;34064;-93
2022/07/03 04:02:40;;;;;;;;;;;;;;;30.32;35.18;99449.12;4409261;32;34477;-94
2022/07/03 04:05:08;;;;;;;;;;;;;;;30.26;35.33;99447.69;4423408;32;35218;-90
2022/07/03 04:07:35;;;;;;;;;;;;;;;30.30;35.36;99459.91;4422742;32;33501;-83
2022/07/03 04:10:02;;;;;;;;;;;;;;;30.80;34.62;99463.84;4422314;32;34282;-83
2022/07/03 04:12:30;;;;;;;;;;;;;;;30.96;33.91;99461.84;4408790;32;34029;-82
2022/07/03 04:14:57;;;;;;;;;;;;;;;31.40;32.81;99460.69;4421308;32;33925;-86
2022/07/03 04:17:25;;;;;;;;;;;;;;;30.28;34.27;99459.16;4421106;32;33418;-95
2022/07/03 04:19:52;;;;;;;;;;;;;;;31.40;32.51;99460.69;4421083;32;32807;-91
2022/07/03 04:22:19;;;;;;;;;;;;;;;31.72;31.89;99457.63;4422766;32;34360;-84
2022/07/03 04:24:46;;;;;;;;;;;;;;;31.24;32.08;99460.00;4421150;32;34590;-96
2022/07/03 04:27:14;;;;;;;;;;;;;;;29.60;35.42;99456.28;4420663;32;34294;-95
2022/07/03 04:29:41;;;;;;;;;;;;;;;29.92;34.93;99447.09;4423163;32;34188;-94
2022/07/03 04:32:09;;;;;;;;;;;;;;;29.96;34.86;99448.62;4407928;32;34058;-92
2022/07/03 04:34:37;;;;;;;;;;;;;;;30.60;33.93;99449.03;4424797;32;35074;-84
2022/07/03 04:37:04;;;;;;;;;;;;;;;31.22;32.66;99446.72;4429943;32;32994;-82
2022/07/03 04:39:31;;;;;;;;;;;;;;;31.31;32.63;99442.56;4410935;32;33884;-83
2022/07/03 04:41:59;;;;;;;;;;;;;;;30.73;33.44;99443.75;4423599;32;33725;-83
2022/07/03 04:44:26;;;;;;;;;;;;;;;32.16;31.39;99435.72;4415381;32;34289;-83
2022/07/03 04:46:53;;;;;;;;;;;;;;;32.28;31.28;99436.66;4413439;32;32495;-83
2022/07/03 04:49:20;;;;;;;;;;;;;;;32.86;30.32;99437.72;4411266;32;34371;-88
2022/07/03 04:51:48;;;;;;;;;;;;;;;31.44;32.60;99438.09;4424188;32;34399;-83
2022/07/03 04:54:15;;;;;;;;;;;;;;;31.81;32.29;99431.97;4421845;32;34568;-88
2022/07/03 04:56:42;;;;;;;;;;;;;;;32.15;31.61;99436.66;4391252;32;34514;-84
2022/07/03 04:59:10;;;;;;;;;;;;;;;32.84;30.62;99434.28;4403256;32;32534;-82
2022/07/03 05:01:37;;;;;;;;;;;;;;;33.22;29.90;99433.25;4401780;32;33702;-93
2022/07/03 05:04:04;;;;;;;;;;;;;;;33.00;30.57;99427.78;4403582;32;33606;-84
2022/07/03 05:06:31;;;;;;;;;;;;;;;33.02;29.93;99417.81;4405844;32;33747;-84
2022/07/03 05:08:59;;;;;;;;;;;;;;;33.39;29.62;99419.38;4407779;32;34903;-96
2022/07/03 05:11:26;;;;;;;;;;;;;;;33.52;29.84;99421.97;4409277;32;34486;-96
2022/07/03 05:13:53;;;;;;;;;;;;;;;33.75;29.34;99413.94;4392553;32;33688;-91
2022/07/03 05:16:20;;;;;;;;;;;;;;;32.85;30.91;99419.91;4405453;32;33422;-96
2022/07/03 05:18:48;;;;;;;;;;;;;;;31.97;32.24;99417.41;4405856;32;34674;-92
2022/07/03 05:21:15;;;;;;;;;;;;;;;32.46;31.33;99423.72;4403295;32;34131;-90
2022/07/03 05:23:42;;;;;;;;;;;;;;;32.43;31.01;99422.16;4405296;32;34321;-89
2022/07/03 05:26:10;;;;;;;;;;;;;;;32.69;30.88;99412.16;4405100;32;33544;-89
2022/07/03 05:28:37;;;;;;;;;;;;;;;32.89;30.87;99417.84;4404925;32;34907;-95
2022/07/03 05:31:04;;;;;;;;;;;;;;;32.21;31.76;99427.34;4402633;32;34381;-88
2022/07/03 05:33:32;;;;;;;;;;;;;;;33.11;31.12;99417.09;4406906;32;34370;-87
2022/07/03 05:36:00;;;;;;;;;;;;;;;32.42;31.75;99423.09;4406456;32;33615;-83
2022/07/03 05:41:13;;;;;;;;;;;;;;;33.37;29.91;99417.75;4405549;32;35238;-84
2022/07/03 05:43:40;;;;;;;;;;;;;;;32.15;32.44;99422.41;4405634;32;34341;-85
2022/07/03 05:46:08;;;;;;;;;;;;;;;31.76;32.95;99418.91;4405938;32;33229;-95
2022/07/03 05:48:35;;;;;;;;;;;;;;;32.29;32.30;99429.47;4406880;32;33889;-86
2022/07/03 05:51:03;;;;;;;;;;;;;;;33.85;29.68;99423.84;4405062;32;33928;-89
2022/07/03 05:53:30;;;;;;;;;;;;;;;34.23;29.07;99425.31;4403592;32;33734;-87
2022/07/03 05:55:57;;;;;;;;;;;;;;;33.43;29.65;99426.22;4408395;32;33322;-82
2022/07/03 05:58:25;;;;;;;;;;;;;;;33.61;29.74;99432.03;4407974;32;33783;-90
2022/07/03 06:00:52;;;;;;;;;;;;;;;34.50;28.69;99426.75;4408349;32;34944;-88
2022/07/03 06:03:19;;;;;;;;;;;;;;;34.76;28.51;99421.91;4413692;32;34089;-82
2022/07/03 06:05:48;;;;;;;;;;;;;;;33.49;30.21;99430.31;4421713;32;33279;-84
2022/07/03 06:08:15;;;;;;;;;;;;;;;34.13;29.82;99429.72;4421772;32;34106;-83
2022/07/03 06:10:42;;;;;;;;;;;;;;;32.99;30.45;99440.38;4420746;32;34535;-86
2022/07/03 06:13:10;;;;;;;;;;;;;;;34.79;28.42;99432.44;4416959;32;32726;-89
2022/07/03 06:15:37;;;;;;;;;;;;;;;33.14;30.32;99451.78;4420302;32;34006;-91
2022/07/03 06:18:04;;;;;;;;;;;;;;;32.90;30.69;99444.59;4405885;32;34978;-84
2022/07/03 06:20:31;;;;;;;;;;;;;;;34.16;29.85;99440.25;4417489;32;34483;-84
2022/07/03 06:22:59;;;;;;;;;;;;;;;33.45;31.33;99452.09;4422568;32;34361;-87
2022/07/03 06:25:26;;;;;;;;;;;;;;;34.13;29.95;99445.88;4412172;32;34347;-83
2022/07/03 06:27:53;;;;;;;;;;;;;;;33.62;29.67;99446.31;4402125;32;34317;-82
2022/07/03 06:30:20;;;;;;;;;;;;;;;34.23;29.28;99446.84;4419061;32;34627;-83
2022/07/03 06:32:48;;;;;;;;;;;;;;;33.81;30.12;99451.09;4408318;32;34478;-83
2022/07/03 06:35:15;;;;;;;;;;;;;;;34.30;28.90;99442.69;4422157;32;33122;-84
2022/07/03 06:37:43;;;;;;;;;;;;;;;33.55;30.15;99439.72;4422291;32;34390;-83
2022/07/03 06:40:10;;;;;;;;;;;;;;;32.38;31.51;99442.19;4422175;32;34452;-83
2022/07/03 06:42:37;;;;;;;;;;;;;;;33.46;30.77;99432.34;4423014;32;34695;-85
2022/07/03 06:45:05;;;;;;;;;;;;;;;33.69;30.26;99427.88;4420187;32;33706;-85
2022/07/03 06:47:36;;;;;;;;;;;;;;;32.55;31.38;99438.31;4408135;32;32684;-92
2022/07/03 06:50:03;;;;;;;;;;;;;;;32.08;32.25;99442.56;4408381;32;35327;-84
2022/07/03 06:52:30;;;;;;;;;;;;;;;31.78;32.74;99427.66;4422346;32;34467;-83
2022/07/03 06:54:58;;;;;;;;;;;;;;;33.57;30.07;99433.25;4422626;32;33405;-84
2022/07/03 06:57:25;;;;;;;;;;;;;;;31.44;33.32;99439.91;4422381;32;33999;-86
2022/07/03 06:59:52;;;;;;;;;;;;;;;32.80;32.24;99435.50;4423225;32;33935;-90
2022/07/03 07:02:20;;;;;;;;;;;;;;;31.71;33.30;99439.81;4416968;32;34580;-83
2022/07/03 07:04:47;;;;;;;;;;;;;;;32.56;31.77;99438.19;4422757;32;33503;-92
2022/07/03 07:07:15;;;;;;;;;;;;;;;31.24;33.74;99427.84;4426593;32;35093;-96
2022/07/03 07:09:43;;;;;;;;;;;;;;;32.53;32.87;99424.13;4396883;32;33550;-90
2022/07/03 07:12:11;;;;;;;;;;;;;;;30.34;36.51;99429.31;4407834;32;32844;-89
2022/07/03 07:14:38;;;;;;;;;;;;;;;31.40;34.36;99425.84;4407963;32;32430;-89
2022/07/03 07:17:05;;;;;;;;;;;;;;;31.35;33.97;99429.81;4407848;32;34001;-82
2022/07/03 07:19:33;;;;;;;;;;;;;;;32.56;32.58;99431.97;4420679;32;33493;-92
2022/07/03 07:22:01;;;;;;;;;;;;;;;33.09;31.44;99424.41;4407437;32;34726;-83
2022/07/03 07:24:28;;;;;;;;;;;;;;;32.40;32.71;99435.78;4392729;32;33710;-86
2022/07/03 07:26:55;;;;;;;;;;;;;;;32.32;32.87;99430.09;4392955;32;35162;-86
2022/07/03 07:29:23;;;;;;;;;;;;;;;31.79;33.99;99426.72;4407214;32;34294;-88
2022/07/03 07:31:50;;;;;;;;;;;;;;;32.78;32.29;99429.41;4406724;32;34427;-92
2022/07/03 07:34:17;;;;;;;;;;;;;;;32.91;31.77;99440.91;4392386;32;34631;-92
2022/07/03 07:36:45;;;;;;;;;;;;;;;34.23;29.66;99430.69;4392727;32;35077;-90
2022/07/03 07:39:12;;;;;;;;;;;;;;;32.56;32.74;99434.66;4406781;32;34020;-94
2022/07/03 07:41:40;;;;;;;;;;;;;;;33.65;31.28;99429.97;4404335;32;35067;-81
2022/07/03 07:44:09;;;;;;;;;;;;;;;33.68;30.95;99427.03;4421789;32;33732;-82
2022/07/03 07:46:36;;;;;;;;;;;;;;;33.60;31.15;99432.13;4421384;32;34171;-88
2022/07/03 07:49:03;;;;;;;;;;;;;;;32.62;32.13;99437.75;4408145;32;34675;-89
2022/07/03 07:51:31;;;;;;;;;;;;;;;34.10;30.01;99436.22;4422558;32;33873;-87
2022/07/03 07:53:59;;;;;;;;;;;;;;;34.77;29.47;99439.78;4420509;32;34265;-84
2022/07/03 07:56:26;;;;;;;;;;;;;;;33.92;29.81;99431.44;4421093;32;34998;-91
2022/07/03 07:58:53;;;;;;;;;;;;;;;33.83;30.17;99439.25;4421695;32;34189;-89
2022/07/03 08:06:55;;;;;;;;;;;;;;;34.29;29.99;99440.97;4413020;32;34921;-84
2022/07/03 08:09:22;;;;;;;;;;;;;;;33.90;29.41;99432.38;4422294;32;35419;-87
2022/07/03 08:11:50;;;;;;;;;;;;;;;33.93;29.87;99436.69;4420868;32;34497;-88
2022/07/03 08:14:17;;;;;;;;;;;;;;;34.28;28.72;99438.38;4421236;32;34295;-90
2022/07/03 08:16:46;;;;;;;;;;;;;;;33.87;30.03;99439.88;4421163;32;34340;-88
2022/07/03 08:19:13;;;;;;;;;;;;;;;33.57;30.55;99446.69;4406508;32;34588;-85
2022/07/03 08:21:41;;;;;;;;;;;;;;;33.81;30.52;99435.81;4421210;32;33991;-83
2022/07/03 08:24:08;;;;;;;;;;;;;;;34.11;29.90;99443.31;4420701;32;34229;-87
2022/07/03 08:26:35;;;;;;;;;;;;;;;33.18;31.21;99442.50;4406918;32;33804;-86
2022/07/03 08:29:03;;;;;;;;;;;;;;;33.21;31.25;99438.75;4421260;32;33671;-88
2022/07/03 08:31:30;;;;;;;;;;;;;;;31.19;34.39;99438.03;4421124;32;34586;-89
2022/07/03 08:33:57;;;;;;;;;;;;;;;32.38;32.84;99437.66;4420776;32;34520;-86
2022/07/03 08:36:25;;;;;;;;;;;;;;;32.24;32.79;99443.22;4407311;32;32985;-89
2022/07/03 08:38:52;;;;;;;;;;;;;;;32.25;32.99;99431.50;4421188;32;35243;-84
2022/07/03 08:41:20;;;;;;;;;;;;;;;32.64;32.24;99432.25;4420939;32;34597;-89
2022/07/03 08:43:47;;;;;;;;;;;;;;;33.45;31.13;99433.28;4421407;32;33677;-86
2022/07/03 08:46:14;;;;;;;;;;;;;;;34.23;29.80;99430.69;4407038;32;34968;-84
2022/07/03 08:48:42;;;;;;;;;;;;;;;35.20;28.36;99434.34;4394223;32;33752;-85
2022/07/03 08:51:09;;;;;;;;;;;;;;;34.09;30.30;99433.62;4420600;32;34221;-88
2022/07/03 08:53:40;;;;;;;;;;;;;;;34.32;29.49;99431.78;4419691;32;33657;-86
2022/07/03 08:56:07;;;;;;;;;;;;;;;33.85;29.23;99426.53;4400790;32;34280;-83
2022/07/03 08:58:34;;;;;;;;;;;;;;;34.73;28.11;99423.00;4405595;32;34418;-82
2022/07/03 09:01:02;;;;;;;;;;;;;;;33.34;30.37;99424.25;4405175;32;34173;-83
2022/07/03 09:03:29;;;;;;;;;;;;;;;34.58;28.54;99424.28;4391567;32;33408;-83
2022/07/03 09:05:57;;;;;;;;;;;;;;;34.82;27.97;99416.03;4392054;32;34363;-89
2022/07/03 09:08:26;;;;;;;;;;;;;;;35.20;26.72;99415.50;4404534;32;34172;-91
2022/07/03 09:10:53;;;;;;;;;;;;;;;35.24;26.97;99408.84;4393574;32;33784;-85
2022/07/03 09:13:20;;;;;;;;;;;;;;;35.05;27.46;99414.97;4407118;32;34520;-88
2022/07/03 09:15:48;;;;;;;;;;;;;;;33.95;28.92;99406.97;4407298;32;34077;-89
2022/07/03 09:18:21;;;;;;;;;;;;;;;33.13;30.50;99417.84;4394075;32;34397;-83
2022/07/03 09:20:48;;;;;;;;;;;;;;;33.33;31.00;99409.09;4393579;32;33983;-88
2022/07/03 09:23:19;;;;;;;;;;;;;;;34.26;27.70;99406.22;4407033;32;33702;-87
2022/07/03 09:25:57;;;;;;;;;;;;;;;34.49;27.32;99409.75;4393456;32;34789;-87
2022/07/03 09:28:41;;;;;;;;;;;;;;;33.69;27.90;99403.69;4394219;32;33824;-83
2022/07/03 09:31:09;;;;;;;;;;;;;;;33.76;28.08;99395.00;4407147;32;34467;-84
2022/07/03 09:33:47;;;;;;;;;;;;;;;34.56;27.22;99396.66;4393280;32;33484;-85
2022/07/03 09:36:14;;;;;;;;;;;;;;;34.75;26.41;99394.13;4406978;32;34177;-89
2022/07/03 09:38:45;;;;;;;;;;;;;;;34.53;25.73;99392.38;4393322;32;34449;-85
2022/07/03 09:41:12;;;;;;;;;;;;;;;35.10;25.86;99383.06;4393150;32;32920;-83
2022/07/03 09:43:43;;;;;;;;;;;;;;;35.04;24.84;99388.12;4393922;32;33642;-87
2022/07/03 09:46:11;;;;;;;;;;;;;;;35.05;24.08;99387.16;4406872;32;34707;-83
2022/07/03 09:48:39;;;;;;;;;;;;;;;34.76;26.00;99379.66;4392592;32;34381;-92
2022/07/03 09:51:15;;;;;;;;;;;;;;;35.56;23.75;99376.41;4405676;32;35097;-85
2022/07/03 09:53:43;;;;;;;;;;;;;;;35.29;24.40;99378.78;4406999;32;34267;-88
2022/07/03 09:56:10;;;;;;;;;;;;;;;34.85;24.44;99373.53;4409760;32;34144;-88
2022/07/03 09:58:38;;;;;;;;;;;;;;;35.04;24.76;99363.88;4422295;32;34220;-90
2022/07/03 10:01:15;;;;;;;;;;;;;;;35.15;24.81;99374.59;4422164;32;35458;-88
2022/07/03 10:03:42;;;;;;;;;;;;;;;35.81;23.75;99372.41;4422117;32;33283;-84
2022/07/03 10:06:10;;;;;;;;;;;;;;;35.78;24.28;99378.06;4408333;32;33861;-84
2022/07/03 10:08:37;;;;;;;;;;;;;;;35.03;27.13;99370.25;4421833;32;33982;-85
2022/07/03 10:11:04;;;;;;;;;;;;;;;34.78;26.89;99358.00;4407972;32;34808;-84
2022/07/03 10:13:31;;;;;;;;;;;;;;;35.27;26.34;99351.09;4407810;32;32952;-85
2022/07/03 10:15:59;;;;;;;;;;;;;;;35.13;25.82;99356.88;4406583;32;34047;-85
2022/07/03 10:18:28;;;;;;;;;;;;;;;34.90;25.77;99364.19;4407491;32;34541;-86
2022/07/03 10:20:57;;;;;;;;;;;;;;;34.98;26.20;99356.31;4408570;32;35395;-84
2022/07/03 10:23:24;;;;;;;;;;;;;;;34.13;26.92;99354.38;4421938;32;33687;-87
2022/07/03 10:25:51;;;;;;;;;;;;;;;34.45;27.99;99356.28;4408603;32;34104;-91
2022/07/03 10:28:19;;;;;;;;;;;;;;;34.46;26.06;99357.97;4421489;32;35172;-88
2022/07/03 10:30:47;;;;;;;;;;;;;;;33.93;27.29;99347.06;4421981;32;35477;-85
2022/07/03 10:33:15;;;;;;;;;;;;;;;34.52;25.47;99354.81;4422072;32;33984;-87
2022/07/03 10:35:43;;;;;;;;;;;;;;;35.31;25.38;99350.72;4421688;32;33678;-82
2022/07/03 10:38:19;;;;;;;;;;;;;;;34.78;26.84;99345.37;4464120;26;34251;-89
2022/07/03 10:46:26;;;;;;;;;;;;;;;36.21;24.13;99347.25;4430036;32;34271;-87
2022/07/03 10:49:00;;;;;;;;;;;;;;;35.23;24.77;99331.69;4408189;32;35346;-90
2022/07/03 10:51:29;;;;;;;;;;;;;;;35.29;24.33;99324.88;4421793;32;35263;-88
2022/07/03 10:54:37;;;;;;;;;;;;;;;34.63;25.43;99325.16;4407892;32;34290;-93
2022/07/03 10:57:05;;;;;;;;;;;;;;;35.45;25.29;99327.94;4369979;32;802251;-82
2022/07/03 10:59:35;;;;;;;;;;;;;;;35.55;25.34;99330.72;4388851;32;35320;-86
2022/07/03 11:02:18;;;;;;;;;;;;;;;35.12;24.67;99320.97;4406166;32;34519;-87
2022/07/03 11:05:02;;;;;;;;;;;;;;;35.46;24.21;99335.06;4413845;32;33790;-88
2022/07/03 11:07:47;;;;;;;;;;;;;;;35.60;25.17;99324.91;4432059;32;34081;-91
2022/07/03 11:10:15;;;;;;;;;;;;;;;34.53;26.03;99321.50;4437468;32;34124;-85
2022/07/03 11:13:03;;;;;;;;;;;;;;;35.65;24.83;99318.13;4437230;32;34333;-91
2022/07/03 11:15:36;;;;;;;;;;;;;;;36.22;23.80;99327.41;4436882;32;33057;-84
2022/07/03 11:18:05;;;;;;;;;;;;;;;34.84;25.03;99317.06;4421601;32;35249;-85
2022/07/03 11:20:32;;;;;;;;;;;;;;;34.98;26.00;99324.81;4421912;32;33924;-85
2022/07/03 11:23:08;;;;;;;;;;;;;;;35.61;26.27;99324.75;4420596;32;34461;-83
2022/07/03 11:25:39;;;;;;;;;;;;;;;34.67;25.38;99326.59;4429450;32;34148;-90
2022/07/03 11:28:06;;;;;;;;;;;;;;;34.57;26.56;99320.28;4421722;32;33683;-93
2022/07/03 11:30:57;;;;;;;;;;;;;;;36.00;26.67;99311.44;4421762;32;34255;-85
2022/07/03 11:33:44;;;;;;;;;;;;;;;35.64;25.21;99307.47;4421770;32;34548;-86
2022/07/03 11:36:25;;;;;;;;;;;;;;;35.82;25.37;99306.66;4415547;32;33257;-84
2022/07/03 11:38:55;;;;;;;;;;;;;;;35.36;25.63;99307.19;4401669;32;34223;-84
2022/07/03 11:41:22;;;;;;;;;;;;;;;36.09;24.67;99299.81;4406158;32;34496;-91
2022/07/03 11:43:57;;;;;;;;;;;;;;;35.34;25.97;99298.38;4407224;32;34564;-89
2022/07/03 11:46:26;;;;;;;;;;;;;;;36.30;24.21;99297.84;4406373;32;33696;-88
2022/07/03 11:49:05;;;;;;;;;;;;;;;35.69;24.48;99291.75;4406318;32;34351;-89
2022/07/03 11:51:33;;;;;;;;;;;;;;;35.76;24.07;99291.06;4406530;32;33982;-84
2022/07/03 11:54:01;;;;;;;;;;;;;;;35.59;26.20;99286.31;4420498;32;34151;-90
2022/07/03 11:56:28;;;;;;;;;;;;;;;36.37;25.68;99270.25;4406954;32;34073;-84
2022/07/03 11:58:56;;;;;;;;;;;;;;;35.81;24.86;99275.31;4401348;32;34162;-85
2022/07/03 12:01:26;;;;;;;;;;;;;;;36.73;24.45;99266.00;4421714;32;34518;-85
2022/07/03 12:04:04;;;;;;;;;;;;;;;36.96;22.56;99256.59;4421305;32;34524;-83
2022/07/03 12:06:35;;;;;;;;;;;;;;;37.68;21.96;99260.44;4421411;32;34334;-86
2022/07/03 12:09:03;;;;;;;;;;;;;;;36.88;23.71;99256.44;4411984;32;34988;-90
2022/07/03 12:11:30;;;;;;;;;;;;;;;36.84;22.38;99252.31;4406161;32;33908;-85
2022/07/03 12:13:57;;;;;;;;;;;;;;;36.96;22.55;99258.44;4392492;32;34426;-83
2022/07/03 12:16:31;;;;;;;;;;;;;;;36.72;23.67;99259.75;4407489;32;33264;-83
2022/07/03 12:19:03;;;;;;;;;;;;;;;36.59;22.52;99259.19;4400967;32;33695;-84
2022/07/03 12:21:37;;;;;;;;;;;;;;;36.23;23.89;99261.59;4407523;32;34449;-87
2022/07/03 12:24:11;;;;;;;;;;;;;;;36.17;23.63;99254.06;4421012;32;34576;-85
2022/07/03 12:26:39;;;;;;;;;;;;;;;36.66;23.21;99245.97;4407393;32;33995;-89
2022/07/03 12:29:07;;;;;;;;;;;;;;;36.43;23.44;99245.41;4411548;32;35117;-88
2022/07/03 12:31:35;;;;;;;;;;;;;;;36.74;23.12;99244.22;4392290;32;34345;-91
2022/07/03 12:34:02;;;;;;;;;;;;;;;36.48;22.94;99235.03;4391791;32;34197;-86
2022/07/03 12:36:29;;;;;;;;;;;;;;;36.84;22.54;99224.47;4393802;32;33796;-88
2022/07/03 12:38:57;;;;;;;;;;;;;;;36.39;22.46;99223.22;4413199;32;34938;-88
2022/07/03 12:41:25;;;;;;;;;;;;;;;37.50;21.30;99225.22;4400630;32;34207;-86
2022/07/03 12:43:52;;;;;;;;;;;;;;;36.34;21.76;99230.06;4406077;32;35057;-85
2022/07/03 12:46:20;;;;;;;;;;;;;;;36.84;21.59;99229.88;4407716;32;33155;-87
2022/07/03 12:48:48;;;;;;;;;;;;;;;36.41;22.92;99225.81;4412735;32;35019;-88
2022/07/03 12:51:16;;;;;;;;;;;;;;;36.06;22.42;99235.31;4406869;32;34254;-85
2022/07/03 12:53:43;;;;;;;;;;;;;;;36.19;22.23;99229.66;4402816;32;33695;-86
2022/07/03 12:56:11;;;;;;;;;;;;;;;36.04;21.58;99230.06;4391645;32;32925;-87
2022/07/03 13:01:29;;;;;;;;;;;;;;;35.93;21.43;99234.72;4411242;32;34013;-84
2022/07/03 13:03:56;;;;;;;;;;;;;;;36.28;22.15;99221.53;4405971;32;34349;-87
2022/07/03 13:06:24;;;;;;;;;;;;;;;36.30;22.27;99216.00;4413377;32;33871;-87
2022/07/03 13:08:53;;;;;;;;;;;;;;;36.67;22.39;99208.03;4405713;32;34033;-87
2022/07/03 13:11:37;;;;;;;;;;;;;;;35.91;22.08;99215.09;4405728;32;34288;-85
2022/07/03 13:14:14;;;;;;;;;;;;;;;36.85;20.65;99218.91;4392399;32;33857;-86
2022/07/03 13:16:42;;;;;;;;;;;;;;;36.73;21.12;99212.81;4406387;32;33756;-86